Terminal Aerodrome Forecast
Issued by NWS

Home | Current Version | Previous Version | Text Only | Print | Product List | Glossary On
Versions: 1 2 3 4 5 6 7 8 9 10 11 12 13 14 15
000
FTUS46 KMTR 011700
TAFSNS
TAF
KSNS 011724Z 0118/0218 VRB04KT P6SM SCT006
     FM011900 29012KT P6SM SKC
     FM020500 29006KT P6SM OVC006=

USA.gov is the U.S. government's official web portal to all federal, state and local government web resources and services.